Aviation Digital Data Service (ADDS)

Output produced by METARs form (0256 UTC 16 September 2014)
found at http://www.aviationweather.gov/adds/metars/
 
KPHL 152329Z 1600/1706 19004KT P6SM BKN200 
     FM160800 18003KT P6SM BKN120 
     TEMPO 1608/1611 -SHRA 
     FM161100 27005KT P6SM BKN040 
     TEMPO 1611/1612 -SHRA 
     FM161400 33008KT P6SM SCT050 BKN200 
     FM170100 36004KT P6SM SKC